createdAt,value
2022-11-23T00:00:09.790Z,6.11
2022-11-23T00:02:36.456Z,6.19
2022-11-23T00:05:03.322Z,6.12
2022-11-23T00:07:30.220Z,6.46
2022-11-23T00:09:56.947Z,6.20
2022-11-23T00:12:23.627Z,6.37
2022-11-23T00:14:50.455Z,6.13
2022-11-23T00:17:17.174Z,6.20
2022-11-23T00:19:43.848Z,6.17
2022-11-23T00:22:10.612Z,6.41
2022-11-23T00:24:37.465Z,6.34
2022-11-23T00:27:04.263Z,6.06
2022-11-23T00:29:31.181Z,6.04
2022-11-23T00:31:58.051Z,6.27
2022-11-23T00:34:24.714Z,6.21
2022-11-23T00:36:51.617Z,6.22
2022-11-23T00:39:18.320Z,6.39
2022-11-23T00:41:45.088Z,6.13
2022-11-23T00:44:11.795Z,6.36
2022-11-23T00:46:38.588Z,6.05
2022-11-23T00:49:06.933Z,6.27
2022-11-23T00:51:34.976Z,6.13
2022-11-23T00:54:03.292Z,6.02
2022-11-23T00:56:30.809Z,6.44
2022-11-23T00:58:59.186Z,6.24
2022-11-23T01:01:34.175Z,6.64
2022-11-23T01:04:09.720Z,6.62
2022-11-23T01:06:37.977Z,6.15
2022-11-23T01:09:06.485Z,6.30
2022-11-23T01:11:33.230Z,6.18
2022-11-23T01:14:00.036Z,6.68
2022-11-23T01:16:47.099Z,6.63
2022-11-23T01:19:15.656Z,6.29
2022-11-23T01:21:42.831Z,6.24
2022-11-23T01:24:12.813Z,6.39
2022-11-23T01:26:40.001Z,6.51
2022-11-23T01:29:11.206Z,6.74
2022-11-23T01:31:40.571Z,6.41
2022-11-23T01:34:12.250Z,6.43
2022-11-23T01:36:38.899Z,6.57
2022-11-23T01:39:05.558Z,6.22
2022-11-23T01:41:34.662Z,6.24
2022-11-23T01:44:01.401Z,6.35
2022-11-23T01:46:28.229Z,6.71
2022-11-23T01:49:02.062Z,6.54
2022-11-23T01:51:31.131Z,6.13
2022-11-23T01:54:00.847Z,6.47
2022-11-23T01:56:31.283Z,6.44
2022-11-23T01:58:59.615Z,6.40
2022-11-23T02:01:26.520Z,6.74
2022-11-23T02:03:56.114Z,6.13
2022-11-23T02:06:23.395Z,6.58
2022-11-23T02:08:51.160Z,6.72
2022-11-23T02:11:17.879Z,6.06
2022-11-23T02:13:46.092Z,6.48
2022-11-23T02:16:13.383Z,5.86
2022-11-23T02:18:42.703Z,6.39
2022-11-23T02:21:09.538Z,5.93
2022-11-23T02:23:45.373Z,5.98
2022-11-23T02:26:15.034Z,5.95
2022-11-23T02:28:47.479Z,5.98
2022-11-23T02:33:58.206Z,6.32
2022-11-23T02:36:27.970Z,6.33
2022-11-23T02:38:56.164Z,5.99
2022-11-23T02:41:22.843Z,5.60
2022-11-23T02:43:53.132Z,6.17
2022-11-23T02:46:19.708Z,6.17
2022-11-23T02:48:46.418Z,6.29
2022-11-23T02:51:12.998Z,6.17
2022-11-23T02:53:39.686Z,6.39
2022-11-23T02:56:06.393Z,6.57
2022-11-23T02:58:33.221Z,6.37
2022-11-23T03:00:59.947Z,6.31
2022-11-23T03:03:26.612Z,5.94
2022-11-23T03:05:53.413Z,6.47
2022-11-23T03:08:20.086Z,5.87
2022-11-23T03:10:46.997Z,6.13
2022-11-23T03:13:13.612Z,6.25
2022-11-23T03:15:40.253Z,6.08
2022-11-23T03:18:06.941Z,6.45
2022-11-23T03:20:33.611Z,6.02
2022-11-23T03:23:00.350Z,6.06
2022-11-23T03:25:27.008Z,5.84
2022-11-23T03:27:53.638Z,5.55
2022-11-23T03:30:20.458Z,5.67
2022-11-23T03:32:47.143Z,5.61
2022-11-23T03:35:13.902Z,5.43
2022-11-23T03:37:40.614Z,5.31
2022-11-23T03:40:07.667Z,5.39
2022-11-23T03:42:34.378Z,5.83
2022-11-23T03:45:01.095Z,6.00
2022-11-23T03:47:27.778Z,5.20
2022-11-23T03:49:54.455Z,5.61
2022-11-23T03:52:21.145Z,5.31
2022-11-23T03:54:47.918Z,5.78
2022-11-23T03:57:14.617Z,5.90
2022-11-23T03:59:41.356Z,5.47
2022-11-23T04:02:08.371Z,5.62
2022-11-23T04:04:36.304Z,5.59
2022-11-23T04:07:03.121Z,5.85
2022-11-23T04:09:30.188Z,5.64
2022-11-23T04:11:57.358Z,5.77
2022-11-23T04:14:24.103Z,5.60
2022-11-23T04:16:50.840Z,5.36
2022-11-23T04:19:17.554Z,6.00
2022-11-23T04:21:44.238Z,5.60
2022-11-23T04:24:11.016Z,5.87
2022-11-23T04:26:37.795Z,6.04
2022-11-23T04:29:04.490Z,5.47
2022-11-23T04:31:31.160Z,5.82
2022-11-23T04:33:57.871Z,5.90
2022-11-23T04:36:24.840Z,5.99
2022-11-23T04:38:51.527Z,5.88
2022-11-23T04:41:18.394Z,5.86
2022-11-23T04:43:45.570Z,5.61
2022-11-23T04:46:12.412Z,5.57
2022-11-23T04:48:39.061Z,5.90
2022-11-23T04:51:06.236Z,5.54
2022-11-23T04:53:32.995Z,5.68
2022-11-23T04:55:59.788Z,5.85
2022-11-23T04:58:27.867Z,5.62
2022-11-23T05:00:58.019Z,5.64
2022-11-23T05:03:24.818Z,5.80
2022-11-23T05:05:51.539Z,5.43
2022-11-23T05:08:18.403Z,5.72
2022-11-23T05:10:45.073Z,5.98
2022-11-23T05:13:11.759Z,5.79
2022-11-23T05:15:38.614Z,5.55
2022-11-23T05:18:10.700Z,5.58
2022-11-23T05:20:37.696Z,5.84
2022-11-23T05:23:04.856Z,5.92
2022-11-23T05:25:31.865Z,5.78
2022-11-23T05:28:03.682Z,5.77
2022-11-23T05:30:38.047Z,5.70
2022-11-23T05:33:04.797Z,5.33
2022-11-23T05:35:31.798Z,5.54
2022-11-23T05:37:58.629Z,5.97
2022-11-23T05:40:25.296Z,5.56
2022-11-23T05:42:58.213Z,5.56
2022-11-23T05:45:25.323Z,5.28
2022-11-23T05:47:53.181Z,5.24
2022-11-23T05:50:20.566Z,5.46
2022-11-23T05:52:47.193Z,5.35
2022-11-23T05:55:14.453Z,5.81
2022-11-23T05:57:41.249Z,5.61
2022-11-23T06:00:10.729Z,5.49
2022-11-23T06:02:41.018Z,5.49
2022-11-23T06:05:09.332Z,5.12
2022-11-23T06:07:36.180Z,4.96
2022-11-23T06:10:04.140Z,5.15
2022-11-23T06:12:31.357Z,5.28
2022-11-23T06:14:58.152Z,5.58
2022-11-23T06:17:24.850Z,5.52
2022-11-23T06:19:51.633Z,5.50
2022-11-23T06:22:18.442Z,5.47
2022-11-23T06:24:45.098Z,5.87
2022-11-23T06:27:16.626Z,5.26
2022-11-23T06:29:45.155Z,5.70
2022-11-23T06:32:12.244Z,5.66
2022-11-23T06:35:00.953Z,5.52
2022-11-23T06:37:28.412Z,5.88
2022-11-23T06:39:55.132Z,5.82
2022-11-23T06:42:43.281Z,5.62
2022-11-23T06:45:12.861Z,5.78
2022-11-23T06:47:39.686Z,6.00
2022-11-23T06:50:06.533Z,5.69
2022-11-23T06:52:33.892Z,5.78
2022-11-23T06:55:01.261Z,5.79
2022-11-23T06:57:28.022Z,5.80
2022-11-23T06:59:54.964Z,6.23
2022-11-23T07:02:21.618Z,6.40
2022-11-23T07:04:48.373Z,6.12
2022-11-23T07:07:15.129Z,5.51
2022-11-23T07:09:42.145Z,5.89
2022-11-23T07:12:08.880Z,6.07
2022-11-23T07:14:35.591Z,6.17
2022-11-23T07:17:02.513Z,6.16
2022-11-23T07:19:29.795Z,5.88
2022-11-23T07:21:56.712Z,5.88
2022-11-23T07:24:23.634Z,5.67
2022-11-23T07:26:50.642Z,5.74
2022-11-23T07:29:17.401Z,5.66
2022-11-23T07:31:44.310Z,5.57
2022-11-23T07:34:11.420Z,5.81
2022-11-23T07:36:38.530Z,5.44
2022-11-23T07:39:05.326Z,5.72
2022-11-23T07:41:32.090Z,5.65
2022-11-23T07:43:58.958Z,6.22
2022-11-23T07:46:25.645Z,5.66
2022-11-23T07:48:54.573Z,5.68
2022-11-23T07:51:22.653Z,5.84
2022-11-23T07:53:49.864Z,5.68
2022-11-23T07:56:16.688Z,6.19
2022-11-23T07:58:43.370Z,6.22
2022-11-23T08:01:11.270Z,5.83
2022-11-23T08:03:37.978Z,5.89
2022-11-23T08:06:09.479Z,6.02
2022-11-23T08:08:36.921Z,6.09
2022-11-23T08:11:04.915Z,6.15
2022-11-23T08:13:32.408Z,5.98
2022-11-23T08:15:59.161Z,5.69
2022-11-23T08:18:25.879Z,5.77
2022-11-23T08:20:52.916Z,5.86
2022-11-23T08:23:20.383Z,6.08
2022-11-23T08:25:47.613Z,6.00
2022-11-23T08:28:14.586Z,6.22
2022-11-23T08:30:41.254Z,6.07
2022-11-23T08:33:08.734Z,5.67
2022-11-23T08:35:36.880Z,5.78
2022-11-23T08:38:07.691Z,6.07
2022-11-23T08:40:34.631Z,5.67
2022-11-23T08:43:01.334Z,5.67
2022-11-23T08:45:28.251Z,5.65
2022-11-23T08:47:59.856Z,5.76
2022-11-23T08:50:26.925Z,5.89
2022-11-23T08:52:57.596Z,6.11
2022-11-23T08:55:25.176Z,6.22
2022-11-23T08:57:54.733Z,5.95
2022-11-23T09:00:21.562Z,6.29
2022-11-23T09:02:48.915Z,6.13
2022-11-23T09:05:15.716Z,5.85
2022-11-23T09:07:42.672Z,5.74
2022-11-23T09:10:13.660Z,5.98
2022-11-23T09:12:43.797Z,6.07
2022-11-23T09:15:10.906Z,6.30
2022-11-23T09:17:37.624Z,5.97
2022-11-23T09:20:04.812Z,5.94
2022-11-23T09:22:31.750Z,5.78
2022-11-23T09:24:58.580Z,5.94
2022-11-23T09:27:25.357Z,5.73
2022-11-23T09:29:52.095Z,5.70
2022-11-23T09:32:18.839Z,5.75
2022-11-23T09:34:45.833Z,6.12
2022-11-23T09:37:13.191Z,5.80
2022-11-23T09:39:40.038Z,5.93
2022-11-23T09:42:06.850Z,5.96
2022-11-23T09:44:34.613Z,6.09
2022-11-23T09:47:13.531Z,5.71
2022-11-23T09:49:55.001Z,5.96
2022-11-23T09:52:22.996Z,6.24
2022-11-23T09:54:52.929Z,5.78
2022-11-23T09:57:22.721Z,5.57
2022-11-23T09:59:53.893Z,5.88
2022-11-23T10:02:22.662Z,6.16
2022-11-23T10:04:51.413Z,6.09
2022-11-23T10:07:26.065Z,6.45
2022-11-23T10:09:52.854Z,6.24
2022-11-23T10:12:19.896Z,6.03
2022-11-23T10:14:49.368Z,5.80
2022-11-23T10:17:28.966Z,5.61
2022-11-23T10:20:14.526Z,6.38
2022-11-23T10:22:51.766Z,5.88
2022-11-23T10:25:19.723Z,6.11
2022-11-23T10:27:48.054Z,6.64
2022-11-23T10:30:16.043Z,6.37
2022-11-23T10:32:47.403Z,6.23
2022-11-23T10:35:33.383Z,6.06
2022-11-23T10:38:26.855Z,6.00
2022-11-23T10:40:59.911Z,6.16
2022-11-23T10:43:29.222Z,6.16
2022-11-23T10:46:15.031Z,6.26
2022-11-23T10:48:41.930Z,6.33
2022-11-23T10:51:21.243Z,6.56
2022-11-23T10:53:57.652Z,6.18
2022-11-23T10:56:28.376Z,6.00
2022-11-23T10:58:55.635Z,5.91
2022-11-23T11:01:24.831Z,6.51
2022-11-23T11:03:52.928Z,6.33
2022-11-23T11:06:27.187Z,6.23
2022-11-23T11:09:09.507Z,5.94
2022-11-23T11:11:39.956Z,6.46
2022-11-23T11:14:16.651Z,6.35
2022-11-23T11:16:50.965Z,6.20
2022-11-23T11:19:22.586Z,6.29
2022-11-23T11:21:49.413Z,6.29
2022-11-23T11:24:18.777Z,6.63
2022-11-23T11:27:02.682Z,6.79
2022-11-23T11:29:38.790Z,6.58
2022-11-23T11:32:06.239Z,6.43
2022-11-23T11:34:44.782Z,6.73
2022-11-23T11:37:14.626Z,6.57
2022-11-23T11:39:54.357Z,6.21
2022-11-23T11:42:27.563Z,6.49
2022-11-23T11:44:55.605Z,6.53
2022-11-23T11:47:30.535Z,6.72
2022-11-23T11:50:02.927Z,6.80
2022-11-23T11:52:40.797Z,7.10
2022-11-23T11:55:14.349Z,6.73
2022-11-23T11:57:44.373Z,6.50
2022-11-23T12:00:15.686Z,6.54
2022-11-23T12:02:53.088Z,6.34
2022-11-23T12:05:29.957Z,6.37
2022-11-23T12:08:08.608Z,6.70
2022-11-23T12:10:35.717Z,6.07
2022-11-23T12:13:03.031Z,6.44
2022-11-23T12:15:52.066Z,6.65
2022-11-23T12:18:24.930Z,6.86
2022-11-23T12:20:57.751Z,6.95
2022-11-23T12:23:24.423Z,6.45
2022-11-23T12:25:56.646Z,6.42
2022-11-23T12:28:49.268Z,6.63
2022-11-23T12:31:26.394Z,6.21
2022-11-23T12:34:22.541Z,6.09
2022-11-23T12:36:51.971Z,6.10
2022-11-23T12:39:57.969Z,6.26
2022-11-23T12:42:30.646Z,5.85
2022-11-23T12:45:35.649Z,6.08
2022-11-23T12:48:21.171Z,6.38
2022-11-23T12:51:00.637Z,6.41
2022-11-23T12:53:33.973Z,6.76
2022-11-23T12:56:03.916Z,6.41
2022-11-23T12:58:31.808Z,6.16
2022-11-23T13:01:06.467Z,6.29
2022-11-23T13:04:00.930Z,6.36
2022-11-23T13:07:26.198Z,6.44
2022-11-23T13:09:58.154Z,6.09
2022-11-23T13:12:24.827Z,6.51
2022-11-23T13:15:00.705Z,6.59
2022-11-23T13:17:31.710Z,6.75
2022-11-23T13:20:04.741Z,6.35
2022-11-23T13:22:33.118Z,6.97
2022-11-23T13:24:59.802Z,6.77
2022-11-23T13:27:31.547Z,6.57
2022-11-23T13:30:01.464Z,6.65
2022-11-23T13:32:40.683Z,6.53
2022-11-23T13:35:30.903Z,6.91
2022-11-23T13:37:57.729Z,7.26
2022-11-23T13:40:29.403Z,6.72
2022-11-23T13:43:15.224Z,7.21
2022-11-23T13:45:42.169Z,7.18
2022-11-23T13:48:09.045Z,6.99
2022-11-23T13:50:40.185Z,6.89
2022-11-23T13:53:24.399Z,6.76
2022-11-23T13:55:52.509Z,7.29
2022-11-23T13:58:23.103Z,7.22
2022-11-23T14:00:50.023Z,7.01
2022-11-23T14:03:35.615Z,7.09
2022-11-23T14:06:04.256Z,7.04
2022-11-23T14:08:35.714Z,6.74
2022-11-23T14:11:11.065Z,6.78
2022-11-23T14:13:38.447Z,7.03
2022-11-23T14:16:06.441Z,6.95
2022-11-23T14:18:49.582Z,7.41
2022-11-23T14:21:33.271Z,7.37
2022-11-23T14:24:14.158Z,6.89
2022-11-23T14:26:48.588Z,6.63
2022-11-23T14:29:25.838Z,7.01
2022-11-23T14:32:12.913Z,6.91
2022-11-23T14:34:48.609Z,7.06
2022-11-23T14:37:34.110Z,7.49
2022-11-23T14:40:18.326Z,7.38
2022-11-23T14:42:50.847Z,7.08
2022-11-23T14:45:19.759Z,7.16
2022-11-23T14:47:49.492Z,7.43
2022-11-23T14:50:24.436Z,7.36
2022-11-23T14:52:53.143Z,7.07
2022-11-23T14:55:25.191Z,7.37
2022-11-23T14:57:55.165Z,7.08
2022-11-23T15:00:27.885Z,7.16
2022-11-23T15:02:56.084Z,7.13
2022-11-23T15:05:24.160Z,7.28
2022-11-23T15:07:56.853Z,6.75
2022-11-23T15:10:42.525Z,7.07
2022-11-23T15:13:26.133Z,7.01
2022-11-23T15:15:55.424Z,7.43
2022-11-23T15:18:33.110Z,7.02
2022-11-23T15:21:02.188Z,7.26
2022-11-23T15:23:50.136Z,7.27
2022-11-23T15:26:48.914Z,7.36
2022-11-23T15:29:28.769Z,7.19
2022-11-23T15:32:22.312Z,7.04
2022-11-23T15:34:42.289Z,7.16
2022-11-23T15:37:10.005Z,7.24
2022-11-23T15:39:37.180Z,7.21
2022-11-23T15:42:04.037Z,7.12
2022-11-23T15:44:31.351Z,7.48
2022-11-23T15:47:03.550Z,6.94
2022-11-23T15:49:30.797Z,7.47
2022-11-23T15:52:01.944Z,7.25
2022-11-23T15:54:38.849Z,7.21
2022-11-23T15:57:13.192Z,6.80
2022-11-23T15:59:44.511Z,7.28
2022-11-23T16:02:20.556Z,7.84
2022-11-23T16:04:47.540Z,7.67
2022-11-23T16:07:20.592Z,7.08
2022-11-23T16:09:52.970Z,7.22
2022-11-23T16:12:25.774Z,7.13
2022-11-23T16:14:53.905Z,6.50
2022-11-23T16:17:23.988Z,6.95
2022-11-23T16:19:55.104Z,6.99
2022-11-23T16:22:23.988Z,7.39
2022-11-23T16:24:52.637Z,7.09
2022-11-23T16:27:23.863Z,7.06
2022-11-23T16:29:51.605Z,6.76
2022-11-23T16:32:22.790Z,7.27
2022-11-23T16:34:49.584Z,7.23
2022-11-23T16:37:16.328Z,7.42
2022-11-23T16:39:43.049Z,7.12
2022-11-23T16:42:16.332Z,7.40
2022-11-23T16:44:43.563Z,7.20
2022-11-23T16:47:24.269Z,7.72
2022-11-23T16:49:51.145Z,7.69
2022-11-23T16:52:18.388Z,7.97
2022-11-23T16:54:45.683Z,7.76
2022-11-23T16:57:18.645Z,7.45
2022-11-23T16:59:45.386Z,7.93
2022-11-23T17:02:13.028Z,7.96
2022-11-23T17:04:39.796Z,8.04
2022-11-23T17:07:06.606Z,8.08
2022-11-23T17:09:33.576Z,8.50
2022-11-23T17:12:00.747Z,8.60
2022-11-23T17:14:29.730Z,8.34
2022-11-23T17:16:56.725Z,8.26
2022-11-23T17:19:23.537Z,8.13
2022-11-23T17:21:50.301Z,8.38
2022-11-23T17:24:16.994Z,8.04
2022-11-23T17:26:48.441Z,7.79
2022-11-23T17:29:16.780Z,8.11
2022-11-23T17:31:46.461Z,7.87
2022-11-23T17:34:13.534Z,7.44
2022-11-23T17:36:41.106Z,7.24
2022-11-23T17:39:08.040Z,7.36
2022-11-23T17:41:34.763Z,7.36
2022-11-23T17:44:01.544Z,7.50
2022-11-23T17:46:31.559Z,7.16
2022-11-23T17:48:59.403Z,7.65
2022-11-23T17:51:26.331Z,7.43
2022-11-23T17:53:53.160Z,7.58
2022-11-23T17:56:21.517Z,7.63
2022-11-23T17:58:48.694Z,7.89
2022-11-23T18:01:16.710Z,7.45
2022-11-23T18:03:44.214Z,7.99
2022-11-23T18:06:15.568Z,7.78
2022-11-23T18:08:42.840Z,7.93
2022-11-23T18:11:09.858Z,7.26
2022-11-23T18:13:37.139Z,7.73
2022-11-23T18:16:04.447Z,7.90
2022-11-23T18:18:31.385Z,7.85
2022-11-23T18:20:59.705Z,8.00
2022-11-23T18:23:26.823Z,8.05
2022-11-23T18:26:00.694Z,7.97
2022-11-23T18:28:28.724Z,7.90
2022-11-23T18:30:55.785Z,8.04
2022-11-23T18:33:23.052Z,8.25
2022-11-23T18:35:50.189Z,8.07
2022-11-23T18:38:21.779Z,8.12
2022-11-23T18:40:48.923Z,8.21
2022-11-23T18:43:18.278Z,8.06
2022-11-23T18:45:47.729Z,8.04
2022-11-23T18:48:34.868Z,8.00
2022-11-23T18:51:11.964Z,8.04
2022-11-23T18:53:39.228Z,7.55
2022-11-23T18:56:07.133Z,7.89
2022-11-23T18:58:37.685Z,7.70
2022-11-23T19:01:12.711Z,7.54
2022-11-23T19:03:41.134Z,7.67
2022-11-23T19:06:08.833Z,7.64
2022-11-23T19:08:39.633Z,7.37
2022-11-23T19:11:08.132Z,7.46
2022-11-23T19:13:38.963Z,7.50
2022-11-23T19:16:15.525Z,7.44
2022-11-23T19:18:43.061Z,7.39
2022-11-23T19:21:13.687Z,7.73
2022-11-23T19:23:40.950Z,7.23
2022-11-23T19:26:08.057Z,7.07
2022-11-23T19:28:35.148Z,7.32
2022-11-23T19:31:13.129Z,7.66
2022-11-23T19:33:40.067Z,7.39
2022-11-23T19:36:08.185Z,7.66
2022-11-23T19:38:35.288Z,7.73
2022-11-23T19:41:02.590Z,7.62
2022-11-23T19:43:30.801Z,7.64
2022-11-23T19:46:01.463Z,7.85
2022-11-23T19:48:30.739Z,8.04
2022-11-23T19:51:07.844Z,7.99
2022-11-23T19:53:35.693Z,7.73
2022-11-23T19:56:07.010Z,7.69
2022-11-23T19:58:34.697Z,7.84
2022-11-23T20:01:07.791Z,7.44
2022-11-23T20:03:35.096Z,7.66
2022-11-23T20:06:03.021Z,7.64
2022-11-23T20:08:30.079Z,7.91
2022-11-23T20:10:57.105Z,7.11
2022-11-23T20:13:24.271Z,7.78
2022-11-23T20:15:51.134Z,7.67
2022-11-23T20:18:18.744Z,7.87
2022-11-23T20:20:46.566Z,7.67
2022-11-23T20:23:14.975Z,7.93
2022-11-23T20:25:42.583Z,7.98
2022-11-23T20:28:12.268Z,7.92
2022-11-23T20:30:39.156Z,7.78
2022-11-23T20:33:07.076Z,8.11
2022-11-23T20:35:33.777Z,8.14
2022-11-23T20:38:00.721Z,8.14
2022-11-23T20:40:27.691Z,8.48
2022-11-23T20:42:57.891Z,8.46
2022-11-23T20:45:25.367Z,8.67
2022-11-23T20:47:55.208Z,8.61
2022-11-23T20:50:25.498Z,8.06
2022-11-23T20:52:53.388Z,8.14
2022-11-23T20:55:23.694Z,8.33
2022-11-23T20:57:51.446Z,8.60
2022-11-23T21:00:18.817Z,8.66
2022-11-23T21:02:48.120Z,8.55
2022-11-23T21:05:14.927Z,8.61
2022-11-23T21:07:41.615Z,8.62
2022-11-23T21:10:08.487Z,8.81
2022-11-23T21:12:53.942Z,8.78
2022-11-23T21:15:21.125Z,9.00
2022-11-23T21:17:47.801Z,8.83
2022-11-23T21:20:15.096Z,8.69
2022-11-23T21:22:41.834Z,8.81
2022-11-23T21:25:08.556Z,8.81
2022-11-23T21:27:35.433Z,8.64
2022-11-23T21:30:02.113Z,8.79
2022-11-23T21:32:29.080Z,8.82
2022-11-23T21:34:56.164Z,8.74
2022-11-23T21:37:22.867Z,8.70
2022-11-23T21:39:52.900Z,8.68
2022-11-23T21:42:19.926Z,8.87
2022-11-23T21:44:46.749Z,8.62
2022-11-23T21:47:13.569Z,8.51
2022-11-23T21:49:40.273Z,8.65
2022-11-23T21:52:09.124Z,8.74
2022-11-23T21:54:36.069Z,8.45
2022-11-23T21:57:02.922Z,8.67
2022-11-23T21:59:29.626Z,8.85
2022-11-23T22:02:00.599Z,8.74
2022-11-23T22:04:27.323Z,8.89
2022-11-23T22:06:54.048Z,8.90
2022-11-23T22:09:21.345Z,9.00
2022-11-23T22:11:50.235Z,8.92
2022-11-23T22:14:22.346Z,8.72
2022-11-23T22:16:54.571Z,8.82
2022-11-23T22:19:21.353Z,8.83
2022-11-23T22:21:48.366Z,8.64
2022-11-23T22:24:16.676Z,8.70
2022-11-23T22:26:43.583Z,8.68
2022-11-23T22:29:10.918Z,8.62
2022-11-23T22:31:38.042Z,8.72
2022-11-23T22:34:06.775Z,8.65
2022-11-23T22:36:33.551Z,8.48
2022-11-23T22:39:02.292Z,8.66
2022-11-23T22:41:30.032Z,8.52
2022-11-23T22:43:57.190Z,8.67
2022-11-23T22:46:24.705Z,8.48
2022-11-23T22:48:52.462Z,8.36
2022-11-23T22:51:23.124Z,8.37
2022-11-23T22:54:10.063Z,8.55
2022-11-23T22:56:41.284Z,8.24
2022-11-23T22:59:08.492Z,8.33
2022-11-23T23:01:36.279Z,8.37
2022-11-23T23:04:03.322Z,8.43
2022-11-23T23:06:33.875Z,8.28
2022-11-23T23:09:01.469Z,8.19
2022-11-23T23:11:29.238Z,7.78
2022-11-23T23:13:56.446Z,8.40
2022-11-23T23:16:23.218Z,8.40
2022-11-23T23:18:50.201Z,8.46
2022-11-23T23:21:18.317Z,8.76
2022-11-23T23:23:45.985Z,8.81
2022-11-23T23:26:13.907Z,8.72
2022-11-23T23:28:40.943Z,8.31
2022-11-23T23:31:09.394Z,8.63
2022-11-23T23:33:36.720Z,8.81
2022-11-23T23:36:07.561Z,8.72
2022-11-23T23:38:34.411Z,8.71
2022-11-23T23:41:01.613Z,8.57
2022-11-23T23:43:29.058Z,8.70
2022-11-23T23:45:59.362Z,8.73
2022-11-23T23:48:28.449Z,8.85
2022-11-23T23:50:55.461Z,8.72
2022-11-23T23:53:32.983Z,8.70
2022-11-23T23:56:00.372Z,8.79
2022-11-23T23:58:27.172Z,8.81
